PWSweather.com
Personal Weather Stations
Station Observations
KNCCHINA3
Red Tractor Trail, China Grove, NC 28023

Red Tractor TrailChina Grove, NC 28023

Lat: 35.59751, Lon: -80.60201

Elevation: 800

Station Type: Oregon Scientific WMR 968

http://www.joesweathergarage.com

High Low Average
Temperature 47.9°F8.8°C 24.9°F-3.9°C 36.5°F2.5°C
Dew Point 25.5°F-3.6°C 10.5°F-11.9°C 17.1°F-8.3°C
Winds 17.1 mph 27.5 kmh Calm Calm 7.0 mph SW11.3 kmh SW
Wind Gusts 34.0 mph54.7 kmh -- 13.0 mph20.9 kmh
Humidity 73% 27% 47%
Pressure 30.00 in1015.9 mb 29.88 in1011.9 mb -
Precipitation 0.00 in0.0 mm - -
Hour Temp Dew Point Humidity Winds Wind Gusts Pressure Precip Precip Rate Daily Precip Total
12:02 AM 35.1°F1.7°C 24.5°F-4.2°C 65% 3.2 mph NNE5.1 kmh NNE 4.4 mph7.1 kmh 29.88 in1011.9 mb 0.00 in0.0 mm 0.00 in0.0 mm 0.00 in0.0 mm
12:08 AM 36.0°F2.2°C 23.9°F-4.5°C 61% 3.4 mph NW5.5 kmh NW 5.4 mph8.7 kmh 29.88 in1011.9 mb 0.00 in0.0 mm 0.00 in0.0 mm 0.00 in0.0 mm
12:13 AM 36.6°F2.6°C 23.6°F-4.7°C 59% 5.7 mph N9.2 kmh N 11.6 mph18.7 kmh 29.91 in1012.9 mb 0.00 in0.0 mm 0.00 in0.0 mm 0.00 in0.0 mm
12:18 AM 36.9°F2.7°C 23.5°F-4.7°C 58% 3.8 mph NW6.1 kmh NW 11.6 mph18.7 kmh 29.91 in1012.9 mb 0.00 in0.0 mm 0.00 in0.0 mm 0.00 in0.0 mm
12:23 AM 37.5°F3.1°C 23.2°F-4.9°C 56% 5.3 mph NW8.5 kmh NW 8.0 mph12.9 kmh 29.91 in1012.9 mb 0.00 in0.0 mm 0.00 in0.0 mm 0.00 in0.0 mm
12:28 AM 37.5°F3.1°C 23.2°F-4.9°C 56% 4.7 mph NNW7.6 kmh NNW 8.0 mph12.9 kmh 29.91 in1012.9 mb 0.00 in0.0 mm 0.00 in0.0 mm 0.00 in0.0 mm
12:33 AM 37.8°F3.2°C 23.0°F-5.0°C 55% 9.7 mph N15.6 kmh N 18.8 mph30.3 kmh 29.91 in1012.9 mb 0.00 in0.0 mm 0.00 in0.0 mm 0.00 in0.0 mm
12:38 AM 38.2°F3.4°C 23.4°F-4.8°C 55% 7.5 mph N12.1 kmh N 24.2 mph38.9 kmh 29.91 in1012.9 mb 0.00 in0.0 mm 0.00 in0.0 mm 0.00 in0.0 mm
12:43 AM 38.0°F3.3°C 23.2°F-4.9°C 55% 11.9 mph N19.2 kmh N 24.2 mph38.9 kmh 29.91 in1012.9 mb 0.00 in0.0 mm 0.00 in0.0 mm 0.00 in0.0 mm
12:48 AM 37.8°F3.2°C 23.5°F-4.7°C 56% 11.4 mph N18.3 kmh N 26.4 mph42.5 kmh 29.91 in1012.9 mb 0.00 in0.0 mm 0.00 in0.0 mm 0.00 in0.0 mm
12:53 AM 37.5°F3.1°C 23.6°F-4.7°C 57% 11.6 mph N18.7 kmh N 26.4 mph42.5 kmh 29.91 in1012.9 mb 0.00 in0.0 mm 0.00 in0.0 mm 0.00 in0.0 mm
12:58 AM 36.9°F2.7°C 23.9°F-4.5°C 59% 9.8 mph NNE15.8 kmh NNE 16.2 mph26.1 kmh 29.91 in1012.9 mb 0.00 in0.0 mm 0.00 in0.0 mm 0.00 in0.0 mm
01:03 AM 36.6°F2.6°C 24.8°F-4.0°C 62% 10.1 mph NNE16.3 kmh NNE 14.8 mph23.8 kmh 29.91 in1012.9 mb 0.00 in0.0 mm 0.00 in0.0 mm 0.00 in0.0 mm
01:09 AM 36.2°F2.3°C 24.8°F-4.0°C 63% 7.4 mph 11.9 kmh 14.8 mph23.8 kmh 29.91 in1012.9 mb 0.00 in0.0 mm 0.00 in0.0 mm 0.00 in0.0 mm
01:14 AM 36.0°F2.2°C 25.0°F-3.9°C 64% 11.5 mph N18.5 kmh N 21.0 mph33.8 kmh 29.91 in1012.9 mb 0.00 in0.0 mm 0.00 in0.0 mm 0.00 in0.0 mm
01:22 AM 35.9°F2.2°C 24.9°F-3.9°C 64% 11.6 mph N18.7 kmh N 21.0 mph33.8 kmh 29.91 in1012.9 mb 0.00 in0.0 mm 0.00 in0.0 mm 0.00 in0.0 mm
01:26 AM 35.9°F2.2°C 24.9°F-3.9°C 64% 8.7 mph N14.0 kmh N 21.0 mph33.8 kmh 29.91 in1012.9 mb 0.00 in0.0 mm 0.00 in0.0 mm 0.00 in0.0 mm
01:31 AM 35.7°F2.1°C 24.7°F-4.1°C 64% 6.2 mph N10.0 kmh N 14.4 mph23.2 kmh 29.91 in1012.9 mb 0.00 in0.0 mm 0.00 in0.0 mm 0.00 in0.0 mm
01:37 AM 35.5°F1.9°C 24.9°F-3.9°C 65% 5.6 mph N9.0 kmh N 12.0 mph19.3 kmh 29.91 in1012.9 mb 0.00 in0.0 mm 0.00 in0.0 mm 0.00 in0.0 mm
01:41 AM 35.3°F1.8°C 25.1°F-3.8°C 66% 6.6 mph NNW10.6 kmh NNW 10.8 mph17.4 kmh 29.91 in1012.9 mb 0.00 in0.0 mm 0.00 in0.0 mm 0.00 in0.0 mm
01:47 AM 35.3°F1.8°C 25.1°F-3.8°C 66% 6.0 mph N9.7 kmh N 15.2 mph24.5 kmh 29.91 in1012.9 mb 0.00 in0.0 mm 0.00 in0.0 mm 0.00 in0.0 mm
01:52 AM 35.3°F1.8°C 25.5°F-3.6°C 67% 8.3 mph NNW13.4 kmh NNW 16.2 mph26.1 kmh 29.91 in1012.9 mb 0.00 in0.0 mm 0.00 in0.0 mm 0.00 in0.0 mm
01:57 AM 35.5°F1.9°C 25.3°F-3.7°C 66% 9.5 mph N15.3 kmh N 16.2 mph26.1 kmh 29.94 in1013.9 mb 0.00 in0.0 mm 0.00 in0.0 mm 0.00 in0.0 mm
02:02 AM 35.3°F1.8°C 25.5°F-3.6°C 67% 5.8 mph N9.3 kmh N 13.4 mph21.6 kmh 29.94 in1013.9 mb 0.00 in0.0 mm 0.00 in0.0 mm 0.00 in0.0 mm
02:07 AM 35.3°F1.8°C 25.1°F-3.8°C 66% 6.0 mph N9.7 kmh N 12.6 mph20.3 kmh 29.94 in1013.9 mb 0.00 in0.0 mm 0.00 in0.0 mm 0.00 in0.0 mm
02:12 AM 35.5°F1.9°C 25.3°F-3.7°C 66% 9.5 mph N15.3 kmh N 19.6 mph31.5 kmh 29.91 in1012.9 mb 0.00 in0.0 mm 0.00 in0.0 mm 0.00 in0.0 mm
02:17 AM 35.5°F1.9°C 25.3°F-3.7°C 66% 5.9 mph N9.5 kmh N 19.6 mph31.5 kmh 29.91 in1012.9 mb 0.00 in0.0 mm 0.00 in0.0 mm 0.00 in0.0 mm
02:23 AM 35.7°F2.1°C 25.1°F-3.8°C 65% 7.7 mph N12.4 kmh N 13.0 mph20.9 kmh 29.91 in1012.9 mb 0.00 in0.0 mm 0.00 in0.0 mm 0.00 in0.0 mm
02:28 AM 35.7°F2.1°C 25.1°F-3.8°C 65% 6.3 mph N10.1 kmh N 13.0 mph20.9 kmh 29.91 in1012.9 mb 0.00 in0.0 mm 0.00 in0.0 mm 0.00 in0.0 mm
02:34 AM 35.7°F2.1°C 24.7°F-4.1°C 64% 8.6 mph N13.8 kmh N 12.6 mph20.3 kmh 29.91 in1012.9 mb 0.00 in0.0 mm 0.00 in0.0 mm 0.00 in0.0 mm
02:39 AM 35.7°F2.1°C 24.7°F-4.1°C 64% 10.3 mph N16.6 kmh N 15.6 mph25.1 kmh 29.91 in1012.9 mb 0.00 in0.0 mm 0.00 in0.0 mm 0.00 in0.0 mm
02:45 AM 35.7°F2.1°C 24.7°F-4.1°C 64% 10.6 mph N17.1 kmh N 18.8 mph30.3 kmh 29.91 in1012.9 mb 0.00 in0.0 mm 0.00 in0.0 mm 0.00 in0.0 mm
02:50 AM 35.7°F2.1°C 24.7°F-4.1°C 64% 8.1 mph N13.0 kmh N 18.8 mph30.3 kmh 29.91 in1012.9 mb 0.00 in0.0 mm 0.00 in0.0 mm 0.00 in0.0 mm
02:56 AM 35.7°F2.1°C 24.7°F-4.1°C 64% 6.1 mph NNW9.8 kmh NNW 14.4 mph23.2 kmh 29.91 in1012.9 mb 0.00 in0.0 mm 0.00 in0.0 mm 0.00 in0.0 mm
03:01 AM 35.7°F2.1°C 24.7°F-4.1°C 64% 8.1 mph N13.0 kmh N 12.6 mph20.3 kmh 29.91 in1012.9 mb 0.00 in0.0 mm 0.00 in0.0 mm 0.00 in0.0 mm
03:06 AM 35.7°F2.1°C 24.4°F-4.2°C 63% 8.7 mph N14.0 kmh N 15.6 mph25.1 kmh 29.91 in1012.9 mb 0.00 in0.0 mm 0.00 in0.0 mm 0.00 in0.0 mm
03:11 AM 35.5°F1.9°C 23.8°F-4.6°C 62% 10.4 mph N16.7 kmh N 16.2 mph26.1 kmh 29.91 in1012.9 mb 0.00 in0.0 mm 0.00 in0.0 mm 0.00 in0.0 mm
03:19 AM 35.3°F1.8°C 23.6°F-4.7°C 62% 11.5 mph N18.5 kmh N 19.2 mph30.9 kmh 29.91 in1012.9 mb 0.00 in0.0 mm 0.00 in0.0 mm 0.00 in0.0 mm
03:24 AM 35.3°F1.8°C 23.2°F-4.9°C 61% 13.6 mph N21.9 kmh N 19.2 mph30.9 kmh 29.91 in1012.9 mb 0.00 in0.0 mm 0.00 in0.0 mm 0.00 in0.0 mm
03:29 AM 35.3°F1.8°C 23.2°F-4.9°C 61% 11.5 mph N18.5 kmh N 21.4 mph34.4 kmh 29.91 in1012.9 mb 0.00 in0.0 mm 0.00 in0.0 mm 0.00 in0.0 mm
03:34 AM 35.1°F1.7°C 23.0°F-5.0°C 61% 9.6 mph N15.4 kmh N 21.4 mph34.4 kmh 29.91 in1012.9 mb 0.00 in0.0 mm 0.00 in0.0 mm 0.00 in0.0 mm
03:39 AM 35.0°F1.7°C 22.9°F-5.1°C 61% 7.1 mph N11.4 kmh N 17.4 mph28.0 kmh 29.91 in1012.9 mb 0.00 in0.0 mm 0.00 in0.0 mm 0.00 in0.0 mm
03:44 AM 34.8°F1.6°C 22.7°F-5.2°C 61% 7.6 mph N12.2 kmh N 17.4 mph28.0 kmh 29.91 in1012.9 mb 0.00 in0.0 mm 0.00 in0.0 mm 0.00 in0.0 mm
03:49 AM 34.6°F1.4°C 22.5°F-5.3°C 61% 5.2 mph N8.4 kmh N 17.4 mph28.0 kmh 29.91 in1012.9 mb 0.00 in0.0 mm 0.00 in0.0 mm 0.00 in0.0 mm
03:54 AM 34.2°F1.2°C 22.2°F-5.4°C 61% 5.5 mph NNE8.9 kmh NNE 14.8 mph23.8 kmh 29.88 in1011.9 mb 0.00 in0.0 mm 0.00 in0.0 mm 0.00 in0.0 mm
04:01 AM 34.1°F1.2°C 22.1°F-5.5°C 61% 5.7 mph NNE9.2 kmh NNE 13.0 mph20.9 kmh 29.88 in1011.9 mb 0.00 in0.0 mm 0.00 in0.0 mm 0.00 in0.0 mm
04:06 AM 33.9°F1.1°C 21.9°F-5.6°C 61% 5.0 mph NNE8.0 kmh NNE 13.0 mph20.9 kmh 29.88 in1011.9 mb 0.00 in0.0 mm 0.00 in0.0 mm 0.00 in0.0 mm
04:11 AM 33.9°F1.1°C 21.9°F-5.6°C 61% 4.0 mph NE6.4 kmh NE 9.4 mph15.1 kmh 29.94 in1013.9 mb 0.00 in0.0 mm 0.00 in0.0 mm 0.00 in0.0 mm
04:16 AM 33.5°F0.8°C 21.5°F-5.8°C 61% 2.7 mph NNE4.3 kmh NNE 9.4 mph15.1 kmh 29.94 in1013.9 mb 0.00 in0.0 mm 0.00 in0.0 mm 0.00 in0.0 mm
04:21 AM 33.3°F0.7°C 21.3°F-5.9°C 61% 3.0 mph N4.8 kmh N 5.0 mph8.0 kmh 29.94 in1013.9 mb 0.00 in0.0 mm 0.00 in0.0 mm 0.00 in0.0 mm
04:26 AM 33.2°F0.7°C 21.2°F-6.0°C 61% 2.8 mph N4.5 kmh N 4.0 mph6.4 kmh 29.91 in1012.9 mb 0.00 in0.0 mm 0.00 in0.0 mm 0.00 in0.0 mm
04:31 AM 33.0°F0.6°C 21.0°F-6.1°C 61% 3.7 mph NNE6.0 kmh NNE 6.8 mph10.9 kmh 29.91 in1012.9 mb 0.00 in0.0 mm 0.00 in0.0 mm 0.00 in0.0 mm
04:36 AM 32.6°F0.3°C 20.6°F-6.3°C 61% 2.8 mph NE4.5 kmh NE 6.8 mph10.9 kmh 29.91 in1012.9 mb 0.00 in0.0 mm 0.00 in0.0 mm 0.00 in0.0 mm
04:41 AM 32.4°F0.2°C 20.5°F-6.4°C 61% Calm Calm 6.8 mph10.9 kmh 29.91 in1012.9 mb 0.00 in0.0 mm 0.00 in0.0 mm 0.00 in0.0 mm
04:46 AM 32.1°F0.1°C 20.6°F-6.3°C 62% 2.4 mph NE3.9 kmh NE 3.2 mph5.1 kmh 29.91 in1012.9 mb 0.00 in0.0 mm 0.00 in0.0 mm 0.00 in0.0 mm
04:52 AM 31.5°F-0.3°C 20.4°F-6.4°C 63% 2.1 mph NE3.4 kmh NE 3.2 mph5.1 kmh 29.91 in1012.9 mb 0.00 in0.0 mm 0.00 in0.0 mm 0.00 in0.0 mm
04:56 AM 31.0°F-0.6°C 19.9°F-6.7°C 63% 3.1 mph NNE5.0 kmh NNE 5.8 mph9.3 kmh 29.91 in1012.9 mb 0.00 in0.0 mm 0.00 in0.0 mm 0.00 in0.0 mm
05:02 AM 31.2°F-0.4°C 20.1°F-6.6°C 63% 4.1 mph N6.6 kmh N 7.2 mph11.6 kmh 29.91 in1012.9 mb 0.00 in0.0 mm 0.00 in0.0 mm 0.00 in0.0 mm
05:07 AM 31.0°F-0.6°C 20.3°F-6.5°C 64% 2.7 mph 4.3 kmh 7.2 mph11.6 kmh 29.91 in1012.9 mb 0.00 in0.0 mm 0.00 in0.0 mm 0.00 in0.0 mm
05:12 AM 30.8°F-0.7°C 20.1°F-6.6°C 64% 2.9 mph NNW4.7 kmh NNW 7.6 mph12.2 kmh 29.91 in1012.9 mb 0.00 in0.0 mm 0.00 in0.0 mm 0.00 in0.0 mm
05:17 AM 30.6°F-0.8°C 19.9°F-6.7°C 64% 2.0 mph 3.2 kmh 7.6 mph12.2 kmh 29.91 in1012.9 mb 0.00 in0.0 mm 0.00 in0.0 mm 0.00 in0.0 mm
05:23 AM 30.1°F-1.1°C 19.4°F-7.0°C 64% Calm Calm 4.4 mph7.1 kmh 29.91 in1012.9 mb 0.00 in0.0 mm 0.00 in0.0 mm 0.00 in0.0 mm
05:28 AM 29.7°F-1.3°C 19.4°F-7.0°C 65% Calm Calm -- 29.94 in1013.9 mb 0.00 in0.0 mm 0.00 in0.0 mm 0.00 in0.0 mm
05:33 AM 29.4°F-1.4°C 19.1°F-7.2°C 65% Calm Calm -- 29.94 in1013.9 mb 0.00 in0.0 mm 0.00 in0.0 mm 0.00 in0.0 mm
05:38 AM 29.0°F-1.7°C 18.7°F-7.4°C 65% Calm Calm -- 29.94 in1013.9 mb 0.00 in0.0 mm 0.00 in0.0 mm 0.00 in0.0 mm
05:44 AM 28.5°F-1.9°C 18.6°F-7.4°C 66% Calm Calm -- 29.91 in1012.9 mb 0.00 in0.0 mm 0.00 in0.0 mm 0.00 in0.0 mm
05:49 AM 27.8°F-2.3°C 18.3°F-7.6°C 67% Calm Calm -- 29.91 in1012.9 mb 0.00 in0.0 mm 0.00 in0.0 mm 0.00 in0.0 mm
05:54 AM 27.6°F-2.4°C 18.4°F-7.6°C 68% Calm Calm -- 29.88 in1011.9 mb 0.00 in0.0 mm 0.00 in0.0 mm 0.00 in0.0 mm
05:59 AM 27.6°F-2.4°C 18.4°F-7.6°C 68% Calm Calm -- 29.88 in1011.9 mb 0.00 in0.0 mm 0.00 in0.0 mm 0.00 in0.0 mm
06:04 AM 27.4°F-2.6°C 18.9°F-7.3°C 70% Calm Calm -- 29.88 in1011.9 mb 0.00 in0.0 mm 0.00 in0.0 mm 0.00 in0.0 mm
06:09 AM 27.6°F-2.4°C 19.1°F-7.2°C 70% 4.9 mph NNE7.9 kmh NNE 5.8 mph9.3 kmh 29.91 in1012.9 mb 0.00 in0.0 mm 0.00 in0.0 mm 0.00 in0.0 mm
06:15 AM 28.3°F-2.1°C 20.8°F-6.2°C 73% 4.8 mph 7.7 kmh 8.0 mph12.9 kmh 29.91 in1012.9 mb 0.00 in0.0 mm 0.00 in0.0 mm 0.00 in0.0 mm
06:20 AM 28.7°F-1.8°C 21.2°F-6.0°C 73% 5.4 mph N8.7 kmh N 8.0 mph12.9 kmh 29.91 in1012.9 mb 0.00 in0.0 mm 0.00 in0.0 mm 0.00 in0.0 mm
06:25 AM 29.2°F-1.6°C 21.0°F-6.1°C 71% 4.7 mph N7.6 kmh N 7.2 mph11.6 kmh 29.91 in1012.9 mb 0.00 in0.0 mm 0.00 in0.0 mm 0.00 in0.0 mm
06:30 AM 29.4°F-1.4°C 20.5°F-6.4°C 69% 6.1 mph N9.8 kmh N 12.0 mph19.3 kmh 29.91 in1012.9 mb 0.00 in0.0 mm 0.00 in0.0 mm 0.00 in0.0 mm
06:35 AM 29.9°F-1.2°C 19.9°F-6.7°C 66% 6.3 mph N10.1 kmh N 12.0 mph19.3 kmh 29.91 in1012.9 mb 0.00 in0.0 mm 0.00 in0.0 mm 0.00 in0.0 mm
06:40 AM 30.1°F-1.1°C 19.4°F-7.0°C 64% 5.5 mph N8.9 kmh N 10.8 mph17.4 kmh 29.94 in1013.9 mb 0.00 in0.0 mm 0.00 in0.0 mm 0.00 in0.0 mm
06:45 AM 30.1°F-1.1°C 19.4°F-7.0°C 64% 5.4 mph N8.7 kmh N 9.8 mph15.8 kmh 29.94 in1013.9 mb 0.00 in0.0 mm 0.00 in0.0 mm 0.00 in0.0 mm
06:50 AM 30.3°F-0.9°C 19.6°F-6.9°C 64% 2.7 mph NW4.3 kmh NW 8.6 mph13.8 kmh 29.94 in1013.9 mb 0.00 in0.0 mm 0.00 in0.0 mm 0.00 in0.0 mm
06:56 AM 30.3°F-0.9°C 19.6°F-6.9°C 64% 3.6 mph NW5.8 kmh NW 5.4 mph8.7 kmh 29.94 in1013.9 mb 0.00 in0.0 mm 0.00 in0.0 mm 0.00 in0.0 mm
07:01 AM 30.5°F-0.8°C 19.8°F-6.8°C 64% 4.1 mph WNW6.6 kmh WNW 5.0 mph8.0 kmh 29.94 in1013.9 mb 0.00 in0.0 mm 0.00 in0.0 mm 0.00 in0.0 mm
07:07 AM 30.6°F-0.8°C 19.9°F-6.7°C 64% 4.3 mph WNW6.9 kmh WNW 5.4 mph8.7 kmh 29.94 in1013.9 mb 0.00 in0.0 mm 0.00 in0.0 mm 0.00 in0.0 mm
07:12 AM 30.6°F-0.8°C 19.9°F-6.7°C 64% 3.1 mph NW5.0 kmh NW 5.4 mph8.7 kmh 29.97 in1014.9 mb 0.00 in0.0 mm 0.00 in0.0 mm 0.00 in0.0 mm
07:17 AM 30.8°F-0.7°C 20.1°F-6.6°C 64% 3.2 mph N5.1 kmh N 5.0 mph8.0 kmh 29.97 in1014.9 mb 0.00 in0.0 mm 0.00 in0.0 mm 0.00 in0.0 mm
07:22 AM 30.8°F-0.7°C 19.7°F-6.8°C 63% 3.1 mph NNW5.0 kmh NNW 7.2 mph11.6 kmh 29.97 in1014.9 mb 0.00 in0.0 mm 0.00 in0.0 mm 0.00 in0.0 mm
07:27 AM 31.0°F-0.6°C 19.9°F-6.7°C 63% 4.0 mph NNW6.4 kmh NNW 7.2 mph11.6 kmh 30.00 in1015.9 mb 0.00 in0.0 mm 0.00 in0.0 mm 0.00 in0.0 mm
07:32 AM 31.0°F-0.6°C 19.9°F-6.7°C 63% 3.8 mph NNW6.1 kmh NNW 7.2 mph11.6 kmh 30.00 in1015.9 mb 0.00 in0.0 mm 0.00 in0.0 mm 0.00 in0.0 mm
07:37 AM 31.4°F-0.3°C 20.3°F-6.5°C 63% 7.1 mph N11.4 kmh N 13.0 mph20.9 kmh 30.00 in1015.9 mb 0.00 in0.0 mm 0.00 in0.0 mm 0.00 in0.0 mm
07:42 AM 31.5°F-0.3°C 20.4°F-6.4°C 63% 5.0 mph NNE8.0 kmh NNE 13.0 mph20.9 kmh 29.97 in1014.9 mb 0.00 in0.0 mm 0.00 in0.0 mm 0.00 in0.0 mm
07:47 AM 31.5°F-0.3°C 20.7°F-6.3°C 64% 4.5 mph E7.2 kmh E 8.0 mph12.9 kmh 29.97 in1014.9 mb 0.00 in0.0 mm 0.00 in0.0 mm 0.00 in0.0 mm
07:52 AM 31.5°F-0.3°C 20.7°F-6.3°C 64% 4.2 mph NNW6.8 kmh NNW 6.8 mph10.9 kmh 29.97 in1014.9 mb 0.00 in0.0 mm 0.00 in0.0 mm 0.00 in0.0 mm
07:58 AM 31.5°F-0.3°C 20.7°F-6.3°C 64% Calm Calm 6.8 mph10.9 kmh 30.00 in1015.9 mb 0.00 in0.0 mm 0.00 in0.0 mm 0.00 in0.0 mm
08:03 AM 31.5°F-0.3°C 20.7°F-6.3°C 64% 2.2 mph NNE3.5 kmh NNE 3.2 mph5.1 kmh 30.00 in1015.9 mb 0.00 in0.0 mm 0.00 in0.0 mm 0.00 in0.0 mm
08:08 AM 31.5°F-0.3°C 20.7°F-6.3°C 64% 3.3 mph NW5.3 kmh NW 4.4 mph7.1 kmh 30.00 in1015.9 mb 0.00 in0.0 mm 0.00 in0.0 mm 0.00 in0.0 mm
08:13 AM 31.7°F-0.2°C 20.9°F-6.2°C 64% Calm Calm 4.4 mph7.1 kmh 29.97 in1014.9 mb 0.00 in0.0 mm 0.00 in0.0 mm 0.00 in0.0 mm
08:18 AM 31.7°F-0.2°C 20.9°F-6.2°C 64% 3.3 mph WNW5.3 kmh WNW 5.4 mph8.7 kmh 29.97 in1014.9 mb 0.00 in0.0 mm 0.00 in0.0 mm 0.00 in0.0 mm
08:23 AM 31.9°F-0.1°C 21.1°F-6.1°C 64% 4.2 mph WNW6.8 kmh WNW 5.8 mph9.3 kmh 29.97 in1014.9 mb 0.00 in0.0 mm 0.00 in0.0 mm 0.00 in0.0 mm
08:28 AM 32.1°F0.1°C 21.3°F-5.9°C 64% 4.5 mph W7.2 kmh W 6.2 mph10.0 kmh 29.97 in1014.9 mb 0.00 in0.0 mm 0.00 in0.0 mm 0.00 in0.0 mm
08:33 AM 32.6°F0.3°C 21.4°F-5.9°C 63% 4.4 mph NW7.1 kmh NW 6.8 mph10.9 kmh 29.97 in1014.9 mb 0.00 in0.0 mm 0.00 in0.0 mm 0.00 in0.0 mm
08:38 AM 33.7°F0.9°C 22.1°F-5.5°C 62% 4.9 mph WNW7.9 kmh WNW 6.8 mph10.9 kmh 29.97 in1014.9 mb 0.00 in0.0 mm 0.00 in0.0 mm 0.00 in0.0 mm
08:43 AM 34.6°F1.4°C 22.1°F-5.5°C 60% 4.9 mph W7.9 kmh W 6.2 mph10.0 kmh 29.97 in1014.9 mb 0.00 in0.0 mm 0.00 in0.0 mm 0.00 in0.0 mm
08:48 AM 35.3°F1.8°C 22.4°F-5.3°C 59% 4.2 mph WNW6.8 kmh WNW 7.2 mph11.6 kmh 29.97 in1014.9 mb 0.00 in0.0 mm 0.00 in0.0 mm 0.00 in0.0 mm
08:53 AM 36.0°F2.2°C 22.2°F-5.4°C 57% 5.1 mph N8.2 kmh N 7.2 mph11.6 kmh 29.97 in1014.9 mb 0.00 in0.0 mm 0.00 in0.0 mm 0.00 in0.0 mm
08:58 AM 36.6°F2.6°C 21.9°F-5.6°C 55% 5.4 mph NW8.7 kmh NW 7.2 mph11.6 kmh 29.97 in1014.9 mb 0.00 in0.0 mm 0.00 in0.0 mm 0.00 in0.0 mm
09:03 AM 36.9°F2.7°C 21.7°F-5.7°C 54% 6.6 mph NW10.6 kmh NW 8.6 mph13.8 kmh 29.97 in1014.9 mb 0.00 in0.0 mm 0.00 in0.0 mm 0.00 in0.0 mm
09:09 AM 36.0°F2.2°C 20.0°F-6.7°C 52% 7.5 mph NW12.1 kmh NW 12.0 mph19.3 kmh 29.97 in1014.9 mb 0.00 in0.0 mm 0.00 in0.0 mm 0.00 in0.0 mm
09:14 AM 35.5°F1.9°C 19.5°F-6.9°C 52% 7.0 mph WNW11.3 kmh WNW 12.0 mph19.3 kmh 29.97 in1014.9 mb 0.00 in0.0 mm 0.00 in0.0 mm 0.00 in0.0 mm
09:19 AM 35.5°F1.9°C 19.5°F-6.9°C 52% 7.0 mph N11.3 kmh N 17.0 mph27.4 kmh 29.97 in1014.9 mb 0.00 in0.0 mm 0.00 in0.0 mm 0.00 in0.0 mm
09:24 AM 36.0°F2.2°C 19.5°F-6.9°C 51% 8.8 mph WNW14.2 kmh WNW 17.0 mph27.4 kmh 29.97 in1014.9 mb 0.00 in0.0 mm 0.00 in0.0 mm 0.00 in0.0 mm
09:29 AM 36.6°F2.6°C 20.1°F-6.6°C 51% 5.6 mph NW9.0 kmh NW 13.0 mph20.9 kmh 29.97 in1014.9 mb 0.00 in0.0 mm 0.00 in0.0 mm 0.00 in0.0 mm
09:34 AM 36.9°F2.7°C 19.9°F-6.7°C 50% 10.4 mph N16.7 kmh N 16.2 mph26.1 kmh 29.97 in1014.9 mb 0.00 in0.0 mm 0.00 in0.0 mm 0.00 in0.0 mm
09:40 AM 37.3°F2.9°C 19.8°F-6.8°C 49% 9.5 mph NW15.3 kmh NW 16.2 mph26.1 kmh 29.97 in1014.9 mb 0.00 in0.0 mm 0.00 in0.0 mm 0.00 in0.0 mm
09:45 AM 37.3°F2.9°C 19.3°F-7.1°C 48% 10.1 mph NW16.3 kmh NW 29.6 mph47.6 kmh 29.97 in1014.9 mb 0.00 in0.0 mm 0.00 in0.0 mm 0.00 in0.0 mm
09:50 AM 37.8°F3.2°C 20.2°F-6.6°C 49% 6.3 mph NNW10.1 kmh NNW 29.6 mph47.6 kmh 29.97 in1014.9 mb 0.00 in0.0 mm 0.00 in0.0 mm 0.00 in0.0 mm
09:54 AM 38.4°F3.6°C 19.8°F-6.8°C 47% 12.1 mph N19.5 kmh N 16.2 mph26.1 kmh 30.00 in1015.9 mb 0.00 in0.0 mm 0.00 in0.0 mm 0.00 in0.0 mm
10:00 AM 38.0°F3.3°C 19.4°F-7.0°C 47% 7.9 mph NNW12.7 kmh NNW 16.2 mph26.1 kmh 30.00 in1015.9 mb 0.00 in0.0 mm 0.00 in0.0 mm 0.00 in0.0 mm
10:05 AM 38.0°F3.3°C 19.4°F-7.0°C 47% 10.9 mph N17.5 kmh N 25.0 mph40.2 kmh 30.00 in1015.9 mb 0.00 in0.0 mm 0.00 in0.0 mm 0.00 in0.0 mm
10:10 AM 38.4°F3.6°C 19.2°F-7.1°C 46% 7.7 mph N12.4 kmh N 25.0 mph40.2 kmh 29.97 in1014.9 mb 0.00 in0.0 mm 0.00 in0.0 mm 0.00 in0.0 mm
10:15 AM 38.6°F3.7°C 18.9°F-7.3°C 45% 8.2 mph NW13.2 kmh NW 22.0 mph35.4 kmh 29.97 in1014.9 mb 0.00 in0.0 mm 0.00 in0.0 mm 0.00 in0.0 mm
10:21 AM 38.9°F3.8°C 18.1°F-7.7°C 43% 13.1 mph N21.1 kmh N 22.0 mph35.4 kmh 29.97 in1014.9 mb 0.00 in0.0 mm 0.00 in0.0 mm 0.00 in0.0 mm
10:26 AM 40.0°F4.4°C 19.1°F-7.2°C 43% 13.9 mph 22.4 kmh 30.8 mph49.6 kmh 30.00 in1015.9 mb 0.00 in0.0 mm 0.00 in0.0 mm 0.00 in0.0 mm
10:31 AM 40.4°F4.7°C 18.9°F-7.3°C 42% 12.4 mph N20.0 kmh N 30.8 mph49.6 kmh 30.00 in1015.9 mb 0.00 in0.0 mm 0.00 in0.0 mm 0.00 in0.0 mm
10:36 AM 40.5°F4.7°C 19.0°F-7.2°C 42% 10.2 mph NNW16.4 kmh NNW 17.8 mph28.6 kmh 30.00 in1015.9 mb 0.00 in0.0 mm 0.00 in0.0 mm 0.00 in0.0 mm
10:42 AM 41.3°F5.2°C 19.1°F-7.2°C 41% 11.3 mph WNW18.2 kmh WNW 19.2 mph30.9 kmh 30.00 in1015.9 mb 0.00 in0.0 mm 0.00 in0.0 mm 0.00 in0.0 mm
10:47 AM 40.7°F4.8°C 18.6°F-7.4°C 41% 10.1 mph NW16.3 kmh NW 19.2 mph30.9 kmh 30.00 in1015.9 mb 0.00 in0.0 mm 0.00 in0.0 mm 0.00 in0.0 mm
10:52 AM 40.4°F4.7°C 18.3°F-7.6°C 41% 10.7 mph NW17.2 kmh NW 19.2 mph30.9 kmh 30.00 in1015.9 mb 0.00 in0.0 mm 0.00 in0.0 mm 0.00 in0.0 mm
10:57 AM 41.1°F5.1°C 18.3°F-7.6°C 40% 12.7 mph WNW20.4 kmh WNW 20.6 mph33.2 kmh 30.00 in1015.9 mb 0.00 in0.0 mm 0.00 in0.0 mm 0.00 in0.0 mm
11:03 AM 42.3°F5.7°C 19.4°F-7.0°C 40% 11.5 mph N18.5 kmh N 20.6 mph33.2 kmh 30.00 in1015.9 mb 0.00 in0.0 mm 0.00 in0.0 mm 0.00 in0.0 mm
11:08 AM 42.3°F5.7°C 18.8°F-7.3°C 39% 10.5 mph NW16.9 kmh NW 19.6 mph31.5 kmh 30.00 in1015.9 mb 0.00 in0.0 mm 0.00 in0.0 mm 0.00 in0.0 mm
11:13 AM 40.9°F4.9°C 18.2°F-7.7°C 40% 8.0 mph NNW12.9 kmh NNW 16.2 mph26.1 kmh 30.00 in1015.9 mb 0.00 in0.0 mm 0.00 in0.0 mm 0.00 in0.0 mm
11:18 AM 41.6°F5.3°C 18.2°F-7.7°C 39% 10.6 mph NW17.1 kmh NW 15.2 mph24.5 kmh 30.00 in1015.9 mb 0.00 in0.0 mm 0.00 in0.0 mm 0.00 in0.0 mm
11:23 AM 42.0°F5.6°C 18.5°F-7.5°C 39% 13.9 mph N22.4 kmh N 23.8 mph38.3 kmh 30.00 in1015.9 mb 0.00 in0.0 mm 0.00 in0.0 mm 0.00 in0.0 mm
11:28 AM 42.2°F5.7°C 18.7°F-7.4°C 39% 11.9 mph NW19.2 kmh NW 23.8 mph38.3 kmh 30.00 in1015.9 mb 0.00 in0.0 mm 0.00 in0.0 mm 0.00 in0.0 mm
11:33 AM 41.6°F5.3°C 18.8°F-7.3°C 40% 9.7 mph WNW15.6 kmh WNW 22.0 mph35.4 kmh 30.00 in1015.9 mb 0.00 in0.0 mm 0.00 in0.0 mm 0.00 in0.0 mm
11:38 AM 40.4°F4.7°C 17.7°F-7.9°C 40% 14.5 mph WNW23.3 kmh WNW 17.4 mph28.0 kmh 30.00 in1015.9 mb 0.00 in0.0 mm 0.00 in0.0 mm 0.00 in0.0 mm
11:44 AM 42.0°F5.6°C 19.2°F-7.1°C 40% 13.1 mph WNW21.1 kmh WNW 17.4 mph28.0 kmh 30.00 in1015.9 mb 0.00 in0.0 mm 0.00 in0.0 mm 0.00 in0.0 mm
11:49 AM 40.7°F4.8°C 18.0°F-7.8°C 40% 12.4 mph WNW20.0 kmh WNW 19.6 mph31.5 kmh 30.00 in1015.9 mb 0.00 in0.0 mm 0.00 in0.0 mm 0.00 in0.0 mm
11:55 AM 40.2°F4.6°C 17.5°F-8.1°C 40% 10.9 mph NNW17.5 kmh NNW 19.2 mph30.9 kmh 30.00 in1015.9 mb 0.00 in0.0 mm 0.00 in0.0 mm 0.00 in0.0 mm
12:00 PM 40.4°F4.7°C 17.7°F-7.9°C 40% 14.5 mph N23.3 kmh N 25.0 mph40.2 kmh 30.00 in1015.9 mb 0.00 in0.0 mm 0.00 in0.0 mm 0.00 in0.0 mm
12:05 PM 39.6°F4.2°C 17.0°F-8.3°C 40% 13.0 mph N20.9 kmh N 25.0 mph40.2 kmh 30.00 in1015.9 mb 0.00 in0.0 mm 0.00 in0.0 mm 0.00 in0.0 mm
12:10 PM 40.5°F4.7°C 17.8°F-7.9°C 40% 12.6 mph N20.3 kmh N 21.0 mph33.8 kmh 30.00 in1015.9 mb 0.00 in0.0 mm 0.00 in0.0 mm 0.00 in0.0 mm
12:16 PM 42.5°F5.8°C 19.0°F-7.2°C 39% 14.6 mph NNW23.5 kmh NNW 22.4 mph36.0 kmh 30.00 in1015.9 mb 0.00 in0.0 mm 0.00 in0.0 mm 0.00 in0.0 mm
12:21 PM 41.8°F5.4°C 18.4°F-7.6°C 39% 8.5 mph WNW13.7 kmh WNW 22.4 mph36.0 kmh 30.00 in1015.9 mb 0.00 in0.0 mm 0.00 in0.0 mm 0.00 in0.0 mm
12:28 PM 42.0°F5.6°C 17.9°F-7.8°C 38% 17.1 mph NW27.5 kmh NW 22.0 mph35.4 kmh 30.00 in1015.9 mb 0.00 in0.0 mm 0.00 in0.0 mm 0.00 in0.0 mm
12:33 PM 42.5°F5.8°C 18.4°F-7.6°C 38% 10.3 mph NW16.6 kmh NW 22.0 mph35.4 kmh 30.00 in1015.9 mb 0.00 in0.0 mm 0.00 in0.0 mm 0.00 in0.0 mm
12:39 PM 41.4°F5.2°C 17.4°F-8.1°C 38% 13.5 mph WNW21.7 kmh WNW 19.6 mph31.5 kmh 30.00 in1015.9 mb 0.00 in0.0 mm 0.00 in0.0 mm 0.00 in0.0 mm
12:44 PM 41.8°F5.4°C 17.8°F-7.9°C 38% 11.6 mph WNW18.7 kmh WNW 19.6 mph31.5 kmh 30.00 in1015.9 mb 0.00 in0.0 mm 0.00 in0.0 mm 0.00 in0.0 mm
12:49 PM 43.1°F6.2°C 18.9°F-7.3°C 38% 12.3 mph N19.8 kmh N 26.4 mph42.5 kmh 30.00 in1015.9 mb 0.00 in0.0 mm 0.00 in0.0 mm 0.00 in0.0 mm
12:54 PM 44.0°F6.7°C 19.7°F-6.8°C 38% 10.8 mph NW17.4 kmh NW 26.4 mph42.5 kmh 30.00 in1015.9 mb 0.00 in0.0 mm 0.00 in0.0 mm 0.00 in0.0 mm
12:59 PM 44.1°F6.7°C 17.2°F-8.2°C 34% 12.6 mph W20.3 kmh W 17.4 mph28.0 kmh 30.00 in1015.9 mb 0.00 in0.0 mm 0.00 in0.0 mm 0.00 in0.0 mm
01:04 PM 43.4°F6.3°C 17.3°F-8.2°C 35% 10.5 mph N16.9 kmh N 19.6 mph31.5 kmh 30.00 in1015.9 mb 0.00 in0.0 mm 0.00 in0.0 mm 0.00 in0.0 mm
01:09 PM 43.2°F6.2°C 16.4°F-8.7°C 34% 12.4 mph NW20.0 kmh NW 19.6 mph31.5 kmh 30.00 in1015.9 mb 0.00 in0.0 mm 0.00 in0.0 mm 0.00 in0.0 mm
01:14 PM 42.0°F5.6°C 16.7°F-8.5°C 36% 15.7 mph 25.3 kmh 30.4 mph48.9 kmh 30.00 in1015.9 mb 0.00 in0.0 mm 0.00 in0.0 mm 0.00 in0.0 mm
01:21 PM 43.4°F6.3°C 15.9°F-8.9°C 33% 12.5 mph W20.1 kmh W 30.4 mph48.9 kmh 30.00 in1015.9 mb 0.00 in0.0 mm 0.00 in0.0 mm 0.00 in0.0 mm
01:26 PM 45.9°F7.7°C 20.1°F-6.6°C 36% 10.3 mph N16.6 kmh N 19.6 mph31.5 kmh 30.00 in1015.9 mb 0.00 in0.0 mm 0.00 in0.0 mm 0.00 in0.0 mm
01:31 PM 46.1°F7.8°C 18.3°F-7.6°C 33% 13.9 mph NW22.4 kmh NW 22.8 mph36.7 kmh 30.00 in1015.9 mb 0.00 in0.0 mm 0.00 in0.0 mm 0.00 in0.0 mm
01:36 PM 46.3°F7.9°C 17.0°F-8.3°C 31% 13.6 mph N21.9 kmh N 25.6 mph41.2 kmh 30.00 in1015.9 mb 0.00 in0.0 mm 0.00 in0.0 mm 0.00 in0.0 mm
01:41 PM 45.6°F7.6°C 17.1°F-8.3°C 32% 14.9 mph N24.0 kmh N 25.6 mph41.2 kmh 29.97 in1014.9 mb 0.00 in0.0 mm 0.00 in0.0 mm 0.00 in0.0 mm
01:46 PM 46.1°F7.8°C 17.6°F-8.0°C 32% 11.1 mph N17.9 kmh N 25.0 mph40.2 kmh 29.97 in1014.9 mb 0.00 in0.0 mm 0.00 in0.0 mm 0.00 in0.0 mm
01:51 PM 47.0°F8.3°C 19.1°F-7.2°C 33% 11.4 mph WNW18.3 kmh WNW 25.0 mph40.2 kmh 29.97 in1014.9 mb 0.00 in0.0 mm 0.00 in0.0 mm 0.00 in0.0 mm
01:56 PM 45.8°F7.7°C 15.8°F-9.0°C 30% 14.2 mph W22.9 kmh W 21.0 mph33.8 kmh 30.00 in1015.9 mb 0.00 in0.0 mm 0.00 in0.0 mm 0.00 in0.0 mm
02:02 PM 44.9°F7.2°C 15.8°F-9.0°C 31% 12.5 mph NW20.1 kmh NW 21.0 mph33.8 kmh 30.00 in1015.9 mb 0.00 in0.0 mm 0.00 in0.0 mm 0.00 in0.0 mm
02:07 PM 46.3°F7.9°C 15.5°F-9.2°C 29% 10.1 mph NNW16.3 kmh NNW 19.2 mph30.9 kmh 30.00 in1015.9 mb 0.00 in0.0 mm 0.00 in0.0 mm 0.00 in0.0 mm
02:12 PM 46.3°F7.9°C 15.5°F-9.2°C 29% 9.4 mph NNW15.1 kmh NNW 26.0 mph41.8 kmh 29.97 in1014.9 mb 0.00 in0.0 mm 0.00 in0.0 mm 0.00 in0.0 mm
02:17 PM 46.7°F8.2°C 16.6°F-8.6°C 30% 9.5 mph NNW15.3 kmh NNW 31.4 mph50.5 kmh 29.97 in1014.9 mb 0.00 in0.0 mm 0.00 in0.0 mm 0.00 in0.0 mm
02:22 PM 47.0°F8.3°C 16.1°F-8.8°C 29% 11.4 mph NW18.3 kmh NW 31.4 mph50.5 kmh 29.97 in1014.9 mb 0.00 in0.0 mm 0.00 in0.0 mm 0.00 in0.0 mm
02:27 PM 47.9°F8.8°C 16.9°F-8.4°C 29% 8.0 mph WNW12.9 kmh WNW 21.4 mph34.4 kmh 29.97 in1014.9 mb 0.00 in0.0 mm 0.00 in0.0 mm 0.00 in0.0 mm
02:32 PM 46.8°F8.2°C 15.9°F-8.9°C 29% 12.4 mph NW20.0 kmh NW 17.0 mph27.4 kmh 29.97 in1014.9 mb 0.00 in0.0 mm 0.00 in0.0 mm 0.00 in0.0 mm
02:37 PM 47.2°F8.4°C 15.5°F-9.2°C 28% 11.3 mph WNW18.2 kmh WNW 22.0 mph35.4 kmh 29.97 in1014.9 mb 0.00 in0.0 mm 0.00 in0.0 mm 0.00 in0.0 mm
02:42 PM 47.2°F8.4°C 15.5°F-9.2°C 28% 10.9 mph NW17.5 kmh NW 22.0 mph35.4 kmh 29.94 in1013.9 mb 0.00 in0.0 mm 0.00 in0.0 mm 0.00 in0.0 mm
02:47 PM 47.0°F8.3°C 16.1°F-8.8°C 29% 13.2 mph W21.2 kmh W 29.6 mph47.6 kmh 29.94 in1013.9 mb 0.00 in0.0 mm 0.00 in0.0 mm 0.00 in0.0 mm
02:52 PM 47.0°F8.3°C 15.3°F-9.3°C 28% 10.9 mph NNW17.5 kmh NNW 29.6 mph47.6 kmh 29.94 in1013.9 mb 0.00 in0.0 mm 0.00 in0.0 mm 0.00 in0.0 mm
02:57 PM 46.7°F8.2°C 15.0°F-9.4°C 28% 13.5 mph NW21.7 kmh NW 20.6 mph33.2 kmh 29.94 in1013.9 mb 0.00 in0.0 mm 0.00 in0.0 mm 0.00 in0.0 mm
03:02 PM 46.7°F8.2°C 14.2°F-9.9°C 27% 9.7 mph W15.6 kmh W 21.0 mph33.8 kmh 29.94 in1013.9 mb 0.00 in0.0 mm 0.00 in0.0 mm 0.00 in0.0 mm
03:07 PM 46.3°F7.9°C 13.9°F-10.1°C 27% 11.8 mph NW19.0 kmh NW 29.6 mph47.6 kmh 29.94 in1013.9 mb 0.00 in0.0 mm 0.00 in0.0 mm 0.00 in0.0 mm
03:12 PM 46.7°F8.2°C 15.0°F-9.4°C 28% 10.6 mph N17.1 kmh N 29.6 mph47.6 kmh 29.97 in1014.9 mb 0.00 in0.0 mm 0.00 in0.0 mm 0.00 in0.0 mm
03:17 PM 46.5°F8.1°C 14.0°F-10.0°C 27% 12.2 mph WNW19.6 kmh WNW 17.0 mph27.4 kmh 29.97 in1014.9 mb 0.00 in0.0 mm 0.00 in0.0 mm 0.00 in0.0 mm
03:23 PM 46.1°F7.8°C 16.1°F-8.8°C 30% 12.2 mph NW19.6 kmh NW 20.6 mph33.2 kmh 29.97 in1014.9 mb 0.00 in0.0 mm 0.00 in0.0 mm 0.00 in0.0 mm
03:28 PM 45.2°F7.3°C 13.7°F-10.2°C 28% 12.1 mph N19.5 kmh N 34.0 mph54.7 kmh 29.97 in1014.9 mb 0.00 in0.0 mm 0.00 in0.0 mm 0.00 in0.0 mm
03:33 PM 46.3°F7.9°C 15.5°F-9.2°C 29% 9.1 mph NNW14.6 kmh NNW 34.0 mph54.7 kmh 29.97 in1014.9 mb 0.00 in0.0 mm 0.00 in0.0 mm 0.00 in0.0 mm
03:38 PM 45.8°F7.7°C 15.8°F-9.0°C 30% 11.8 mph N19.0 kmh N 30.8 mph49.6 kmh 29.97 in1014.9 mb 0.00 in0.0 mm 0.00 in0.0 mm 0.00 in0.0 mm
03:43 PM 45.4°F7.4°C 14.7°F-9.6°C 29% 7.7 mph NW12.4 kmh NW 30.8 mph49.6 kmh 29.97 in1014.9 mb 0.00 in0.0 mm 0.00 in0.0 mm 0.00 in0.0 mm
03:48 PM 45.2°F7.3°C 14.5°F-9.7°C 29% 10.7 mph NNW17.2 kmh NNW 19.6 mph31.5 kmh 29.97 in1014.9 mb 0.00 in0.0 mm 0.00 in0.0 mm 0.00 in0.0 mm
03:53 PM 45.2°F7.3°C 14.5°F-9.7°C 29% 14.2 mph N22.9 kmh N 21.0 mph33.8 kmh 29.97 in1014.9 mb 0.00 in0.0 mm 0.00 in0.0 mm 0.00 in0.0 mm
03:58 PM 45.4°F7.4°C 14.7°F-9.6°C 29% 9.9 mph N15.9 kmh N 21.0 mph33.8 kmh 29.94 in1013.9 mb 0.00 in0.0 mm 0.00 in0.0 mm 0.00 in0.0 mm
04:03 PM 45.2°F7.3°C 13.7°F-10.2°C 28% 11.8 mph N19.0 kmh N 24.2 mph38.9 kmh 29.94 in1013.9 mb 0.00 in0.0 mm 0.00 in0.0 mm 0.00 in0.0 mm
04:08 PM 45.4°F7.4°C 14.7°F-9.6°C 29% 10.7 mph N17.2 kmh N 24.2 mph38.9 kmh 29.94 in1013.9 mb 0.00 in0.0 mm 0.00 in0.0 mm 0.00 in0.0 mm
04:13 PM 46.5°F8.1°C 15.6°F-9.1°C 29% 6.9 mph W11.1 kmh W 17.0 mph27.4 kmh 29.97 in1014.9 mb 0.00 in0.0 mm 0.00 in0.0 mm 0.00 in0.0 mm
04:18 PM 46.3°F7.9°C 15.5°F-9.2°C 29% 9.4 mph NW15.1 kmh NW 14.4 mph23.2 kmh 29.97 in1014.9 mb 0.00 in0.0 mm 0.00 in0.0 mm 0.00 in0.0 mm
04:23 PM 45.8°F7.7°C 14.2°F-9.9°C 28% 13.5 mph NW21.7 kmh NW 21.0 mph33.8 kmh 29.97 in1014.9 mb 0.00 in0.0 mm 0.00 in0.0 mm 0.00 in0.0 mm
04:29 PM 44.9°F7.2°C 13.5°F-10.3°C 28% 14.9 mph WNW24.0 kmh WNW 22.0 mph35.4 kmh 30.00 in1015.9 mb 0.00 in0.0 mm 0.00 in0.0 mm 0.00 in0.0 mm
04:33 PM 45.6°F7.6°C 14.1°F-9.9°C 28% 9.2 mph NW14.8 kmh NW 22.0 mph35.4 kmh 30.00 in1015.9 mb 0.00 in0.0 mm 0.00 in0.0 mm 0.00 in0.0 mm
04:39 PM 45.4°F7.4°C 13.9°F-10.1°C 28% 10.8 mph NW17.4 kmh NW 19.6 mph31.5 kmh 30.00 in1015.9 mb 0.00 in0.0 mm 0.00 in0.0 mm 0.00 in0.0 mm
04:45 PM 45.6°F7.6°C 14.1°F-9.9°C 28% 11.2 mph W18.0 kmh W 17.4 mph28.0 kmh 29.97 in1014.9 mb 0.00 in0.0 mm 0.00 in0.0 mm 0.00 in0.0 mm
04:50 PM 46.3°F7.9°C 13.9°F-10.1°C 27% 9.4 mph WNW15.1 kmh WNW 17.0 mph27.4 kmh 29.97 in1014.9 mb 0.00 in0.0 mm 0.00 in0.0 mm 0.00 in0.0 mm
04:55 PM 45.6°F7.6°C 14.1°F-9.9°C 28% 15.1 mph N24.3 kmh N 22.0 mph35.4 kmh 29.97 in1014.9 mb 0.00 in0.0 mm 0.00 in0.0 mm 0.00 in0.0 mm
05:00 PM 45.9°F7.7°C 14.3°F-9.8°C 28% 11.2 mph NNW18.0 kmh NNW 22.0 mph35.4 kmh 29.97 in1014.9 mb 0.00 in0.0 mm 0.00 in0.0 mm 0.00 in0.0 mm
05:05 PM 45.9°F7.7°C 14.3°F-9.8°C 28% 9.8 mph NW15.8 kmh NW 17.4 mph28.0 kmh 29.97 in1014.9 mb 0.00 in0.0 mm 0.00 in0.0 mm 0.00 in0.0 mm
05:10 PM 45.6°F7.6°C 14.1°F-9.9°C 28% 10.7 mph NNW17.2 kmh NNW 21.0 mph33.8 kmh 30.00 in1015.9 mb 0.00 in0.0 mm 0.00 in0.0 mm 0.00 in0.0 mm
05:15 PM 44.9°F7.2°C 14.3°F-9.8°C 29% 10.0 mph NNW16.1 kmh NNW 21.0 mph33.8 kmh 30.00 in1015.9 mb 0.00 in0.0 mm 0.00 in0.0 mm 0.00 in0.0 mm
05:20 PM 45.4°F7.4°C 14.7°F-9.6°C 29% 5.8 mph NNW9.3 kmh NNW 19.2 mph30.9 kmh 30.00 in1015.9 mb 0.00 in0.0 mm 0.00 in0.0 mm 0.00 in0.0 mm
05:25 PM 45.2°F7.3°C 13.7°F-10.2°C 28% 10.5 mph NW16.9 kmh NW 21.4 mph34.4 kmh 29.97 in1014.9 mb 0.00 in0.0 mm 0.00 in0.0 mm 0.00 in0.0 mm
05:30 PM 44.7°F7.1°C 13.3°F-10.4°C 28% 7.3 mph N11.7 kmh N 21.4 mph34.4 kmh 29.97 in1014.9 mb 0.00 in0.0 mm 0.00 in0.0 mm 0.00 in0.0 mm
05:35 PM 44.1°F6.7°C 13.6°F-10.2°C 29% 8.4 mph NNW13.5 kmh NNW 17.4 mph28.0 kmh 29.97 in1014.9 mb 0.00 in0.0 mm 0.00 in0.0 mm 0.00 in0.0 mm
05:40 PM 43.6°F6.4°C 13.1°F-10.5°C 29% 10.2 mph N16.4 kmh N 17.4 mph28.0 kmh 29.97 in1014.9 mb 0.00 in0.0 mm 0.00 in0.0 mm 0.00 in0.0 mm
05:45 PM 42.9°F6.1°C 12.5°F-10.8°C 29% 12.2 mph N19.6 kmh N 20.2 mph32.5 kmh 29.97 in1014.9 mb 0.00 in0.0 mm 0.00 in0.0 mm 0.00 in0.0 mm
05:50 PM 42.3°F5.7°C 12.0°F-11.1°C 29% 11.7 mph N18.8 kmh N 22.0 mph35.4 kmh 29.97 in1014.9 mb 0.00 in0.0 mm 0.00 in0.0 mm 0.00 in0.0 mm
05:55 PM 42.0°F5.6°C 12.5°F-10.8°C 30% 6.7 mph NW10.8 kmh NW 22.0 mph35.4 kmh 29.94 in1013.9 mb 0.00 in0.0 mm 0.00 in0.0 mm 0.00 in0.0 mm
06:00 PM 41.8°F5.4°C 12.3°F-10.9°C 30% 6.5 mph N10.5 kmh N 13.0 mph20.9 kmh 29.94 in1013.9 mb 0.00 in0.0 mm 0.00 in0.0 mm 0.00 in0.0 mm
06:07 PM 41.1°F5.1°C 11.7°F-11.3°C 30% 6.9 mph N11.1 kmh N 25.0 mph40.2 kmh 29.94 in1013.9 mb 0.00 in0.0 mm 0.00 in0.0 mm 0.00 in0.0 mm
06:12 PM 40.9°F4.9°C 11.5°F-11.4°C 30% 10.5 mph N16.9 kmh N 25.0 mph40.2 kmh 29.97 in1014.9 mb 0.00 in0.0 mm 0.00 in0.0 mm 0.00 in0.0 mm
06:18 PM 40.7°F4.8°C 12.1°F-11.1°C 31% 5.5 mph N8.9 kmh N 22.0 mph35.4 kmh 29.97 in1014.9 mb 0.00 in0.0 mm 0.00 in0.0 mm 0.00 in0.0 mm
06:22 PM 40.5°F4.7°C 11.9°F-11.2°C 31% 7.5 mph NNW12.1 kmh NNW 15.6 mph25.1 kmh 29.97 in1014.9 mb 0.00 in0.0 mm 0.00 in0.0 mm 0.00 in0.0 mm
06:28 PM 40.4°F4.7°C 12.6°F-10.8°C 32% 13.6 mph N21.9 kmh N 20.6 mph33.2 kmh 29.97 in1014.9 mb 0.00 in0.0 mm 0.00 in0.0 mm 0.00 in0.0 mm
06:33 PM 40.4°F4.7°C 12.6°F-10.8°C 32% 8.7 mph N14.0 kmh N 20.6 mph33.2 kmh 29.97 in1014.9 mb 0.00 in0.0 mm 0.00 in0.0 mm 0.00 in0.0 mm
06:37 PM 40.2°F4.6°C 13.1°F-10.5°C 33% 6.0 mph NNW9.7 kmh NNW 18.8 mph30.3 kmh 29.97 in1014.9 mb 0.00 in0.0 mm 0.00 in0.0 mm 0.00 in0.0 mm
06:43 PM 40.0°F4.4°C 12.9°F-10.6°C 33% 7.9 mph N12.7 kmh N 17.4 mph28.0 kmh 29.97 in1014.9 mb 0.00 in0.0 mm 0.00 in0.0 mm 0.00 in0.0 mm
06:48 PM 40.2°F4.6°C 13.8°F-10.1°C 34% 4.6 mph NW7.4 kmh NW 17.4 mph28.0 kmh 29.97 in1014.9 mb 0.00 in0.0 mm 0.00 in0.0 mm 0.00 in0.0 mm
06:53 PM 40.0°F4.4°C 13.6°F-10.2°C 34% 5.3 mph NNW8.5 kmh NNW 8.6 mph13.8 kmh 29.97 in1014.9 mb 0.00 in0.0 mm 0.00 in0.0 mm 0.00 in0.0 mm
06:59 PM 39.8°F4.3°C 12.7°F-10.7°C 33% 7.4 mph N11.9 kmh N 11.6 mph18.7 kmh 29.97 in1014.9 mb 0.00 in0.0 mm 0.00 in0.0 mm 0.00 in0.0 mm
07:04 PM 39.8°F4.3°C 12.7°F-10.7°C 33% 4.1 mph N6.6 kmh N 11.6 mph18.7 kmh 29.97 in1014.9 mb 0.00 in0.0 mm 0.00 in0.0 mm 0.00 in0.0 mm
07:09 PM 39.1°F3.9°C 12.8°F-10.7°C 34% 9.0 mph N14.5 kmh N 11.6 mph18.7 kmh 29.97 in1014.9 mb 0.00 in0.0 mm 0.00 in0.0 mm 0.00 in0.0 mm
07:14 PM 38.9°F3.8°C 12.6°F-10.8°C 34% 7.5 mph NNE12.1 kmh NNE 11.6 mph18.7 kmh 29.97 in1014.9 mb 0.00 in0.0 mm 0.00 in0.0 mm 0.00 in0.0 mm
07:19 PM 38.4°F3.6°C 12.2°F-11.0°C 34% 7.4 mph N11.9 kmh N 9.8 mph15.8 kmh 29.97 in1014.9 mb 0.00 in0.0 mm 0.00 in0.0 mm 0.00 in0.0 mm
07:24 PM 38.0°F3.3°C 12.5°F-10.8°C 35% 5.0 mph N8.0 kmh N 10.8 mph17.4 kmh 29.97 in1014.9 mb 0.00 in0.0 mm 0.00 in0.0 mm 0.00 in0.0 mm
07:29 PM 37.8°F3.2°C 12.9°F-10.6°C 36% 6.6 mph N10.6 kmh N 14.8 mph23.8 kmh 29.97 in1014.9 mb 0.00 in0.0 mm 0.00 in0.0 mm 0.00 in0.0 mm
07:34 PM 37.5°F3.1°C 12.7°F-10.7°C 36% 5.4 mph NNW8.7 kmh NNW 14.8 mph23.8 kmh 29.97 in1014.9 mb 0.00 in0.0 mm 0.00 in0.0 mm 0.00 in0.0 mm
07:39 PM 37.3°F2.9°C 13.1°F-10.5°C 37% 5.2 mph N8.4 kmh N 8.0 mph12.9 kmh 29.97 in1014.9 mb 0.00 in0.0 mm 0.00 in0.0 mm 0.00 in0.0 mm
07:44 PM 36.9°F2.7°C 13.4°F-10.3°C 38% 6.0 mph N9.7 kmh N 12.0 mph19.3 kmh 29.97 in1014.9 mb 0.00 in0.0 mm 0.00 in0.0 mm 0.00 in0.0 mm
07:49 PM 36.8°F2.7°C 13.3°F-10.4°C 38% 6.5 mph N10.5 kmh N 12.0 mph19.3 kmh 29.97 in1014.9 mb 0.00 in0.0 mm 0.00 in0.0 mm 0.00 in0.0 mm
07:54 PM 36.6°F2.6°C 13.1°F-10.5°C 38% 4.3 mph N6.9 kmh N 10.8 mph17.4 kmh 29.97 in1014.9 mb 0.00 in0.0 mm 0.00 in0.0 mm 0.00 in0.0 mm
08:00 PM 36.2°F2.3°C 13.3°F-10.4°C 39% 5.1 mph NNW8.2 kmh NNW 6.8 mph10.9 kmh 29.97 in1014.9 mb 0.00 in0.0 mm 0.00 in0.0 mm 0.00 in0.0 mm
08:05 PM 36.0°F2.2°C 13.2°F-10.4°C 39% 3.8 mph N6.1 kmh N 6.2 mph10.0 kmh 29.97 in1014.9 mb 0.00 in0.0 mm 0.00 in0.0 mm 0.00 in0.0 mm
08:10 PM 35.5°F1.9°C 12.7°F-10.7°C 39% Calm Calm 6.2 mph10.0 kmh 30.00 in1015.9 mb 0.00 in0.0 mm 0.00 in0.0 mm 0.00 in0.0 mm
08:15 PM 35.1°F1.7°C 12.9°F-10.6°C 40% Calm Calm 2.2 mph3.5 kmh 30.00 in1015.9 mb 0.00 in0.0 mm 0.00 in0.0 mm 0.00 in0.0 mm
08:20 PM 35.0°F1.7°C 12.9°F-10.6°C 40% 2.4 mph 3.9 kmh 3.2 mph5.1 kmh 30.00 in1015.9 mb 0.00 in0.0 mm 0.00 in0.0 mm 0.00 in0.0 mm
08:25 PM 34.8°F1.6°C 12.7°F-10.7°C 40% 3.7 mph N6.0 kmh N 4.4 mph7.1 kmh 30.00 in1015.9 mb 0.00 in0.0 mm 0.00 in0.0 mm 0.00 in0.0 mm
08:31 PM 34.8°F1.6°C 12.7°F-10.7°C 40% 3.6 mph 5.8 kmh 5.4 mph8.7 kmh 30.00 in1015.9 mb 0.00 in0.0 mm 0.00 in0.0 mm 0.00 in0.0 mm
08:36 PM 34.8°F1.6°C 12.7°F-10.7°C 40% 5.8 mph N9.3 kmh N 7.6 mph12.2 kmh 30.00 in1015.9 mb 0.00 in0.0 mm 0.00 in0.0 mm 0.00 in0.0 mm
08:41 PM 35.0°F1.7°C 12.9°F-10.6°C 40% 5.8 mph N9.3 kmh N 7.6 mph12.2 kmh 30.00 in1015.9 mb 0.00 in0.0 mm 0.00 in0.0 mm 0.00 in0.0 mm
08:46 PM 35.0°F1.7°C 12.9°F-10.6°C 40% 5.8 mph N9.3 kmh N 9.0 mph14.5 kmh 30.00 in1015.9 mb 0.00 in0.0 mm 0.00 in0.0 mm 0.00 in0.0 mm
08:52 PM 35.0°F1.7°C 12.9°F-10.6°C 40% 6.9 mph N11.1 kmh N 9.4 mph15.1 kmh 30.00 in1015.9 mb 0.00 in0.0 mm 0.00 in0.0 mm 0.00 in0.0 mm
08:57 PM 34.8°F1.6°C 12.7°F-10.7°C 40% 5.1 mph N8.2 kmh N 11.2 mph18.0 kmh 30.00 in1015.9 mb 0.00 in0.0 mm 0.00 in0.0 mm 0.00 in0.0 mm
09:02 PM 34.6°F1.4°C 12.5°F-10.8°C 40% 4.6 mph N7.4 kmh N 11.2 mph18.0 kmh 30.00 in1015.9 mb 0.00 in0.0 mm 0.00 in0.0 mm 0.00 in0.0 mm
09:07 PM 34.4°F1.3°C 12.9°F-10.6°C 41% 6.0 mph NNE9.7 kmh NNE 8.6 mph13.8 kmh 30.00 in1015.9 mb 0.00 in0.0 mm 0.00 in0.0 mm 0.00 in0.0 mm
09:12 PM 34.2°F1.2°C 12.7°F-10.7°C 41% 6.4 mph NNE10.3 kmh NNE 10.8 mph17.4 kmh 30.00 in1015.9 mb 0.00 in0.0 mm 0.00 in0.0 mm 0.00 in0.0 mm
09:17 PM 34.1°F1.2°C 12.6°F-10.8°C 41% 5.6 mph N9.0 kmh N 10.8 mph17.4 kmh 30.00 in1015.9 mb 0.00 in0.0 mm 0.00 in0.0 mm 0.00 in0.0 mm
09:22 PM 33.7°F0.9°C 12.2°F-11.0°C 41% Calm Calm 8.0 mph12.9 kmh 30.00 in1015.9 mb 0.00 in0.0 mm 0.00 in0.0 mm 0.00 in0.0 mm
09:27 PM 33.2°F0.7°C 11.8°F-11.2°C 41% Calm Calm 4.0 mph6.4 kmh 30.00 in1015.9 mb 0.00 in0.0 mm 0.00 in0.0 mm 0.00 in0.0 mm
09:32 PM 32.4°F0.2°C 11.6°F-11.3°C 42% Calm Calm -- 30.00 in1015.9 mb 0.00 in0.0 mm 0.00 in0.0 mm 0.00 in0.0 mm
09:37 PM 31.7°F-0.2°C 11.0°F-11.7°C 42% Calm Calm -- 30.00 in1015.9 mb 0.00 in0.0 mm 0.00 in0.0 mm 0.00 in0.0 mm
09:42 PM 31.4°F-0.3°C 11.3°F-11.5°C 43% Calm Calm -- 30.00 in1015.9 mb 0.00 in0.0 mm 0.00 in0.0 mm 0.00 in0.0 mm
09:47 PM 30.8°F-0.7°C 11.3°F-11.5°C 44% 2.9 mph WSW4.7 kmh WSW 4.0 mph6.4 kmh 30.00 in1015.9 mb 0.00 in0.0 mm 0.00 in0.0 mm 0.00 in0.0 mm
09:52 PM 30.5°F-0.8°C 11.0°F-11.7°C 44% 2.1 mph WSW3.4 kmh WSW 4.0 mph6.4 kmh 30.00 in1015.9 mb 0.00 in0.0 mm 0.00 in0.0 mm 0.00 in0.0 mm
09:57 PM 30.1°F-1.1°C 11.1°F-11.6°C 45% 1.8 mph WSW2.9 kmh WSW 3.2 mph5.1 kmh 30.00 in1015.9 mb 0.00 in0.0 mm 0.00 in0.0 mm 0.00 in0.0 mm
10:02 PM 29.6°F-1.3°C 10.7°F-11.8°C 45% 1.8 mph WSW2.9 kmh WSW 2.6 mph4.2 kmh 30.00 in1015.9 mb 0.00 in0.0 mm 0.00 in0.0 mm 0.00 in0.0 mm
10:07 PM 29.4°F-1.4°C 10.5°F-11.9°C 45% 3.9 mph NNE6.3 kmh NNE 5.0 mph8.0 kmh 30.00 in1015.9 mb 0.00 in0.0 mm 0.00 in0.0 mm 0.00 in0.0 mm
10:13 PM 29.4°F-1.4°C 11.0°F-11.7°C 46% 4.1 mph NNE6.6 kmh NNE 5.4 mph8.7 kmh 30.00 in1015.9 mb 0.00 in0.0 mm 0.00 in0.0 mm 0.00 in0.0 mm
10:18 PM 29.4°F-1.4°C 11.0°F-11.7°C 46% 3.0 mph NNE4.8 kmh NNE 5.4 mph8.7 kmh 30.00 in1015.9 mb 0.00 in0.0 mm 0.00 in0.0 mm 0.00 in0.0 mm
10:23 PM 28.8°F-1.8°C 11.4°F-11.4°C 48% 2.4 mph NNE3.9 kmh NNE 4.4 mph7.1 kmh 30.00 in1015.9 mb 0.00 in0.0 mm 0.00 in0.0 mm 0.00 in0.0 mm
10:28 PM 28.3°F-2.1°C 11.5°F-11.4°C 49% Calm Calm 3.2 mph5.1 kmh 30.00 in1015.9 mb 0.00 in0.0 mm 0.00 in0.0 mm 0.00 in0.0 mm
10:34 PM 28.1°F-2.2°C 10.8°F-11.8°C 48% Calm Calm -- 30.00 in1015.9 mb 0.00 in0.0 mm 0.00 in0.0 mm 0.00 in0.0 mm
10:39 PM 27.9°F-2.3°C 11.1°F-11.6°C 49% Calm Calm -- 30.00 in1015.9 mb 0.00 in0.0 mm 0.00 in0.0 mm 0.00 in0.0 mm
10:44 PM 27.9°F-2.3°C 10.6°F-11.9°C 48% 2.1 mph NNE3.4 kmh NNE 2.2 mph3.5 kmh 30.00 in1015.9 mb 0.00 in0.0 mm 0.00 in0.0 mm 0.00 in0.0 mm
10:49 PM 27.6°F-2.4°C 10.8°F-11.8°C 49% Calm Calm 2.6 mph4.2 kmh 30.00 in1015.9 mb 0.00 in0.0 mm 0.00 in0.0 mm 0.00 in0.0 mm
10:54 PM 27.4°F-2.6°C 10.6°F-11.9°C 49% 2.2 mph NNE3.5 kmh NNE 2.6 mph4.2 kmh 30.00 in1015.9 mb 0.00 in0.0 mm 0.00 in0.0 mm 0.00 in0.0 mm
10:59 PM 27.4°F-2.6°C 11.1°F-11.6°C 50% 2.4 mph NNE3.9 kmh NNE 2.6 mph4.2 kmh 30.00 in1015.9 mb 0.00 in0.0 mm 0.00 in0.0 mm 0.00 in0.0 mm
11:04 PM 27.0°F-2.8°C 11.2°F-11.6°C 51% 2.4 mph NNE3.9 kmh NNE 4.0 mph6.4 kmh 30.00 in1015.9 mb 0.00 in0.0 mm 0.00 in0.0 mm 0.00 in0.0 mm
11:09 PM 27.2°F-2.7°C 11.4°F-11.4°C 51% 2.1 mph NNE3.4 kmh NNE 4.0 mph6.4 kmh 30.00 in1015.9 mb 0.00 in0.0 mm 0.00 in0.0 mm 0.00 in0.0 mm
11:14 PM 27.0°F-2.8°C 11.6°F-11.3°C 52% Calm Calm 4.0 mph6.4 kmh 30.00 in1015.9 mb 0.00 in0.0 mm 0.00 in0.0 mm 0.00 in0.0 mm
11:19 PM 26.7°F-2.9°C 11.4°F-11.4°C 52% Calm Calm -- 30.00 in1015.9 mb 0.00 in0.0 mm 0.00 in0.0 mm 0.00 in0.0 mm
11:24 PM 26.5°F-3.1°C 11.2°F-11.6°C 52% Calm Calm -- 30.00 in1015.9 mb 0.00 in0.0 mm 0.00 in0.0 mm 0.00 in0.0 mm
11:29 PM 26.1°F-3.3°C 11.2°F-11.6°C 53% Calm Calm -- 30.00 in1015.9 mb 0.00 in0.0 mm 0.00 in0.0 mm 0.00 in0.0 mm
11:36 PM 26.0°F-3.3°C 11.1°F-11.6°C 53% Calm Calm -- 30.00 in1015.9 mb 0.00 in0.0 mm 0.00 in0.0 mm 0.00 in0.0 mm
11:40 PM 26.0°F-3.3°C 10.7°F-11.8°C 52% Calm Calm -- 30.00 in1015.9 mb 0.00 in0.0 mm 0.00 in0.0 mm 0.00 in0.0 mm
11:46 PM 26.0°F-3.3°C 11.1°F-11.6°C 53% Calm Calm -- 30.00 in1015.9 mb 0.00 in0.0 mm 0.00 in0.0 mm 0.00 in0.0 mm
11:51 PM 26.0°F-3.3°C 11.6°F-11.3°C 54% Calm Calm -- 30.00 in1015.9 mb 0.00 in0.0 mm 0.00 in0.0 mm 0.00 in0.0 mm
11:56 PM 26.0°F-3.3°C 12.0°F-11.1°C 55% Calm Calm -- 29.97 in1014.9 mb 0.00 in0.0 mm 0.00 in0.0 mm 0.00 in0.0 mm